Time;durP1;ratioP1;P1;durP2;ratioP2;P2;SDS_P1;SDS_P2;PMS_P1;PMS_P2;Temp;Humidity;BMP_temperature;BMP_pressure;BME280_temperature;BME280_humidity;BME280_pressure;Samples;Min_cycle;Max_cycle;Signal;HPM_P1;HPM_P2
2023/05/27 00:00:20;;;;;;;15.05;8.27;;;15.40;99.90;;;;;;5075911;28;20052;-80
2023/05/27 00:02:45;;;;;;;12.93;8.30;;;15.30;99.90;;;;;;5075957;28;20028;-79
2023/05/27 00:05:11;;;;;;;15.75;8.65;;;15.30;99.90;;;;;;5073872;28;20034;-79
2023/05/27 00:07:37;;;;;;;15.30;8.23;;;15.30;99.90;;;;;;5074905;28;20544;-79
2023/05/27 00:10:03;;;;;;;18.25;9.00;;;15.30;99.90;;;;;;5074885;28;20462;-79
2023/05/27 00:12:29;;;;;;;13.15;8.18;;;15.30;99.90;;;;;;5075053;28;20035;-79
2023/05/27 00:14:55;;;;;;;16.05;7.95;;;15.30;99.90;;;;;;5073480;28;20040;-79
2023/05/27 00:17:21;;;;;;;12.55;8.05;;;15.30;99.90;;;;;;5075000;28;20070;-79
2023/05/27 00:19:49;;;;;;;16.50;8.18;;;15.30;99.90;;;;;;5073320;28;20033;-81
2023/05/27 00:22:15;;;;;;;12.75;7.93;;;15.30;99.90;;;;;;5074868;28;20447;-80
2023/05/27 00:24:41;;;;;;;15.75;8.80;;;15.30;99.90;;;;;;5074732;28;20513;-80
2023/05/27 00:27:08;;;;;;;16.48;8.27;;;15.30;99.90;;;;;;5073048;28;20052;-80
2023/05/27 00:29:35;;;;;;;12.88;7.75;;;15.20;99.90;;;;;;5075260;28;20090;-80
2023/05/27 00:32:05;;;;;;;15.48;8.68;;;15.20;99.90;;;;;;5073291;28;20029;-79
2023/05/27 00:34:32;;;;;;;12.32;7.90;;;15.20;99.90;;;;;;5074596;28;20036;-80
2023/05/27 00:36:58;;;;;;;13.52;7.93;;;15.20;99.90;;;;;;5067813;28;20028;-80
2023/05/27 00:39:24;;;;;;;13.23;7.43;;;15.20;99.90;;;;;;5074302;28;20036;-79
2023/05/27 00:41:50;;;;;;;12.93;7.95;;;15.20;99.90;;;;;;5073347;28;20034;-79
2023/05/27 00:44:17;;;;;;;19.70;7.85;;;15.20;99.90;;;;;;5073059;28;20044;-79
2023/05/27 00:46:45;;;;;;;16.00;7.78;;;15.20;99.90;;;;;;5074461;28;20071;-79
2023/05/27 00:49:12;;;;;;;13.82;8.00;;;15.20;99.90;;;;;;5074427;28;20463;-79
2023/05/27 00:51:38;;;;;;;15.77;7.88;;;15.20;99.90;;;;;;5074277;28;20470;-79
2023/05/27 00:54:05;;;;;;;18.92;7.53;;;15.20;99.90;;;;;;5073832;28;20386;-79
2023/05/27 00:56:32;;;;;;;11.88;7.68;;;15.20;99.90;;;;;;5074595;28;20021;-79
2023/05/27 00:58:58;;;;;;;13.70;8.18;;;15.10;99.90;;;;;;5073354;28;20525;-80
2023/05/27 01:01:25;;;;;;;14.43;8.10;;;15.10;99.90;;;;;;5072991;28;20032;-80
2023/05/27 01:03:52;;;;;;;12.25;7.78;;;15.10;99.90;;;;;;5074239;28;20033;-79
2023/05/27 01:06:48;;;;;;;13.93;6.97;;;15.10;99.90;;;;;;5074429;28;20036;-79
2023/05/27 01:09:26;;;;;;;13.35;7.28;;;15.10;99.90;;;;;;5073856;28;20036;-79
2023/05/27 01:12:17;;;;;;;15.70;7.93;;;15.00;99.90;;;;;;5068387;28;20029;-80
2023/05/27 01:14:45;;;;;;;15.95;7.70;;;15.10;99.90;;;;;;5073514;28;20127;-79
2023/05/27 01:17:12;;;;;;;13.20;7.80;;;15.10;99.90;;;;;;5072964;28;20067;-78
2023/05/27 01:19:44;;;;;;;12.45;7.40;;;15.10;99.90;;;;;;5072792;28;20024;-79
2023/05/27 01:22:14;;;;;;;12.10;7.05;;;15.10;99.90;;;;;;5070890;28;20545;-78
2023/05/27 01:24:41;;;;;;;12.05;7.10;;;15.10;99.90;;;;;;5067741;28;20051;-78
2023/05/27 01:27:08;;;;;;;11.85;8.40;;;15.00;99.90;;;;;;5073839;28;20020;-79
2023/05/27 01:29:34;;;;;;;13.63;7.38;;;15.10;99.90;;;;;;5072420;28;20074;-78
2023/05/27 01:32:13;;;;;;;19.52;8.00;;;15.00;99.90;;;;;;5072541;28;20029;-79
2023/05/27 01:34:51;;;;;;;15.45;7.45;;;15.00;99.90;;;;;;5072526;28;20170;-79
2023/05/27 01:37:21;;;;;;;12.45;7.75;;;15.00;99.90;;;;;;5073027;28;20031;-79
2023/05/27 01:39:50;;;;;;;15.73;7.65;;;15.00;99.90;;;;;;5072348;28;20108;-79
2023/05/27 01:42:16;;;;;;;12.85;7.93;;;15.00;99.90;;;;;;5073323;28;20677;-78
2023/05/27 01:44:43;;;;;;;15.02;8.27;;;15.00;99.90;;;;;;5073637;28;20027;-78
2023/05/27 01:47:08;;;;;;;20.23;8.32;;;15.00;99.90;;;;;;5073275;28;20466;-78
2023/05/27 01:49:35;;;;;;;16.42;8.55;;;15.00;99.90;;;;;;5073182;28;20108;-79
2023/05/27 01:52:01;;;;;;;17.10;8.90;;;15.10;99.90;;;;;;5072844;28;20031;-79
2023/05/27 01:54:27;;;;;;;17.17;8.57;;;15.10;99.90;;;;;;5072267;28;20032;-79
2023/05/27 01:56:52;;;;;;;18.92;9.07;;;15.10;99.90;;;;;;5072153;28;20054;-79
2023/05/27 01:59:18;;;;;;;14.75;8.80;;;15.10;99.90;;;;;;5073698;28;20386;-79
2023/05/27 02:01:44;;;;;;;19.27;9.80;;;15.10;99.90;;;;;;5073466;28;20089;-78
2023/05/27 02:04:10;;;;;;;17.38;9.50;;;15.10;99.90;;;;;;5073196;28;20082;-78
2023/05/27 02:06:36;;;;;;;17.17;9.07;;;15.10;99.90;;;;;;5073278;28;20413;-78
2023/05/27 02:09:03;;;;;;;18.20;9.98;;;15.00;99.90;;;;;;5072078;28;20472;-79
2023/05/27 02:11:29;;;;;;;23.85;10.02;;;15.00;99.90;;;;;;5072717;28;20029;-79
2023/05/27 02:13:55;;;;;;;22.10;9.75;;;15.00;99.90;;;;;;5073367;28;20379;-79
2023/05/27 02:16:21;;;;;;;16.48;9.93;;;15.00;99.90;;;;;;5071846;28;20467;-79
2023/05/27 02:18:51;;;;;;;17.52;10.15;;;15.00;99.90;;;;;;5073165;28;20025;-79
2023/05/27 02:21:17;;;;;;;18.50;10.45;;;15.00;99.90;;;;;;5073313;28;20490;-78
2023/05/27 02:23:43;;;;;;;23.90;10.38;;;15.00;99.90;;;;;;5071682;28;20063;-79
2023/05/27 02:26:08;;;;;;;15.30;9.82;;;15.00;99.90;;;;;;5073077;28;20070;-79
2023/05/27 02:28:34;;;;;;;17.08;9.70;;;15.00;99.90;;;;;;5071833;28;20033;-79
2023/05/27 02:31:00;;;;;;;25.35;9.77;;;15.00;99.90;;;;;;5073698;28;20029;-78
2023/05/27 02:33:26;;;;;;;15.25;9.38;;;15.00;99.90;;;;;;5072836;28;20025;-78
2023/05/27 02:35:52;;;;;;;20.23;9.63;;;15.00;99.90;;;;;;5073347;28;20045;-79
2023/05/27 02:38:18;;;;;;;16.95;9.15;;;15.00;99.90;;;;;;5071457;28;20116;-79
2023/05/27 02:40:43;;;;;;;19.73;10.43;;;14.90;99.90;;;;;;5073134;28;20029;-79
2023/05/27 02:43:09;;;;;;;18.60;9.60;;;14.90;99.90;;;;;;5073273;28;20355;-79
2023/05/27 02:45:35;;;;;;;27.00;10.68;;;14.90;99.90;;;;;;5071481;28;20028;-78
2023/05/27 02:48:01;;;;;;;21.65;11.25;;;14.90;99.90;;;;;;5071390;28;20025;-78
2023/05/27 02:50:27;;;;;;;22.08;10.45;;;14.80;99.90;;;;;;5071762;28;20112;-78
2023/05/27 02:52:53;;;;;;;23.15;10.15;;;14.80;99.90;;;;;;5071126;28;20056;-78
2023/05/27 02:55:19;;;;;;;20.13;10.60;;;14.80;99.90;;;;;;5072951;28;20072;-78
2023/05/27 02:57:45;;;;;;;24.15;11.48;;;14.80;99.90;;;;;;5070916;28;20036;-78
2023/05/27 03:00:12;;;;;;;22.92;11.25;;;14.70;99.90;;;;;;5072255;28;20033;-78
2023/05/27 03:02:37;;;;;;;21.10;11.13;;;14.80;99.90;;;;;;5072846;28;20078;-78
2023/05/27 03:05:04;;;;;;;25.50;11.75;;;14.80;99.90;;;;;;5071779;28;20436;-78
2023/05/27 03:07:30;;;;;;;23.20;11.48;;;14.70;99.90;;;;;;5072284;28;20082;-78
2023/05/27 03:09:56;;;;;;;29.30;13.10;;;14.70;99.90;;;;;;5071677;28;20474;-78
2023/05/27 03:12:22;;;;;;;21.13;12.38;;;14.80;99.90;;;;;;5072798;28;20078;-79
2023/05/27 03:14:49;;;;;;;27.40;11.55;;;14.70;99.90;;;;;;5072447;28;20064;-78
2023/05/27 03:17:15;;;;;;;27.23;12.48;;;14.80;99.90;;;;;;5071309;28;20029;-79
2023/05/27 03:19:41;;;;;;;23.17;10.85;;;14.70;99.90;;;;;;5072362;28;20450;-79
2023/05/27 03:22:09;;;;;;;18.55;10.45;;;14.80;99.90;;;;;;5073247;28;20052;-79
2023/05/27 03:24:35;;;;;;;20.80;10.75;;;14.80;99.90;;;;;;5076039;28;20467;-79
2023/05/27 03:27:01;;;;;;;27.92;10.73;;;14.80;99.90;;;;;;5074994;28;20473;-80
2023/05/27 03:29:27;;;;;;;20.95;10.30;;;14.80;99.90;;;;;;5074662;28;20020;-79
2023/05/27 03:31:53;;;;;;;24.48;11.27;;;14.80;99.90;;;;;;5074890;28;20067;-80
2023/05/27 03:34:19;;;;;;;21.80;11.35;;;14.80;99.90;;;;;;5074702;28;20070;-80
2023/05/27 03:36:46;;;;;;;26.58;12.07;;;14.90;99.90;;;;;;5076264;28;20025;-80
2023/05/27 03:39:14;;;;;;;17.77;10.68;;;14.90;99.90;;;;;;5075802;28;20040;-80
2023/05/27 03:41:41;;;;;;;21.13;10.45;;;14.90;99.90;;;;;;5074241;28;20470;-80
2023/05/27 03:44:07;;;;;;;24.35;10.98;;;15.00;99.90;;;;;;5074772;28;20032;-80
2023/05/27 03:46:33;;;;;;;17.83;10.65;;;15.00;99.90;;;;;;5075701;28;20032;-80
2023/05/27 03:48:59;;;;;;;23.13;10.95;;;15.10;99.90;;;;;;5075300;28;20028;-79
2023/05/27 03:51:25;;;;;;;24.33;10.73;;;15.00;99.90;;;;;;5075757;28;20130;-80
2023/05/27 03:53:51;;;;;;;26.88;10.85;;;15.10;99.90;;;;;;5075475;28;20033;-80
2023/05/27 03:56:17;;;;;;;20.42;10.98;;;15.00;99.90;;;;;;5073969;28;20086;-80
2023/05/27 03:58:43;;;;;;;23.05;11.10;;;15.10;99.90;;;;;;5074182;28;20043;-80
2023/05/27 04:01:09;;;;;;;23.88;10.40;;;15.10;99.90;;;;;;5075504;28;20032;-80
2023/05/27 04:03:35;;;;;;;19.02;10.73;;;15.20;99.90;;;;;;5075164;28;20024;-80
2023/05/27 04:06:01;;;;;;;20.15;9.20;;;15.20;99.90;;;;;;5075768;28;20097;-80
2023/05/27 04:08:27;;;;;;;26.80;10.30;;;15.20;99.90;;;;;;5075513;28;20104;-80
2023/05/27 04:10:54;;;;;;;25.20;10.40;;;15.20;99.90;;;;;;5073917;28;20036;-80
2023/05/27 04:13:20;;;;;;;23.70;10.68;;;15.20;99.90;;;;;;5075476;28;20028;-79
2023/05/27 04:15:46;;;;;;;21.65;11.23;;;15.30;99.90;;;;;;5073919;28;20444;-80
2023/05/27 04:18:12;;;;;;;24.08;10.18;;;15.30;99.90;;;;;;5075042;28;20024;-80
2023/05/27 04:20:40;;;;;;;20.10;10.23;;;15.40;99.90;;;;;;5075641;28;20055;-80
2023/05/27 04:23:10;;;;;;;21.83;11.25;;;15.40;99.90;;;;;;5068315;28;20036;-80
2023/05/27 04:25:36;;;;;;;27.17;11.25;;;15.40;99.90;;;;;;5074926;28;20036;-80
2023/05/27 04:28:06;;;;;;;25.52;10.80;;;15.50;99.90;;;;;;5074858;28;20055;-80
2023/05/27 04:30:33;;;;;;;22.30;10.90;;;15.50;99.90;;;;;;5072880;28;20021;-80
2023/05/27 04:33:00;;;;;;;23.20;10.52;;;15.60;99.90;;;;;;5074142;28;20029;-80
2023/05/27 04:35:26;;;;;;;15.10;9.50;;;15.60;99.90;;;;;;5074072;28;20047;-80
2023/05/27 04:37:52;;;;;;;24.27;9.93;;;15.70;99.90;;;;;;5073179;28;20031;-80
2023/05/27 04:40:19;;;;;;;18.25;10.30;;;15.70;99.90;;;;;;5073416;28;20024;-79
2023/05/27 04:42:44;;;;;;;25.55;10.75;;;15.80;99.90;;;;;;5074757;28;20029;-79
2023/05/27 04:45:14;;;;;;;19.52;10.25;;;15.90;99.90;;;;;;5072837;28;20363;-79
2023/05/27 04:47:40;;;;;;;21.23;9.50;;;15.90;99.90;;;;;;5073360;28;20035;-79
2023/05/27 04:50:10;;;;;;;19.63;9.80;;;16.00;99.90;;;;;;5073520;28;20036;-80
2023/05/27 04:52:41;;;;;;;18.83;9.98;;;16.10;99.90;;;;;;5072843;28;20481;-80
2023/05/27 04:55:09;;;;;;;19.83;9.93;;;16.10;99.90;;;;;;5074539;28;20036;-80
2023/05/27 04:57:35;;;;;;;16.90;9.18;;;16.10;99.90;;;;;;5074052;28;20103;-80
2023/05/27 05:02:34;;;;;;;21.80;9.95;;;16.30;99.90;;;;;;5074271;28;20028;-79
2023/05/27 05:05:04;;;;;;;21.25;10.70;;;16.30;99.90;;;;;;5073959;28;20391;-80
2023/05/27 05:07:31;;;;;;;24.83;10.27;;;16.40;99.90;;;;;;5073483;28;20080;-80
2023/05/27 05:09:57;;;;;;;24.75;9.30;;;16.50;99.90;;;;;;5074321;28;20036;-80
2023/05/27 05:12:24;;;;;;;21.92;9.25;;;16.50;99.90;;;;;;5072770;28;20535;-81
2023/05/27 05:14:51;;;;;;;17.15;9.15;;;16.60;99.90;;;;;;5072378;28;20402;-80
2023/05/27 05:17:17;;;;;;;17.30;9.30;;;16.70;99.90;;;;;;5073986;28;20151;-79
2023/05/27 05:19:44;;;;;;;18.48;9.68;;;16.70;99.90;;;;;;5072045;28;20104;-79
2023/05/27 05:22:13;;;;;;;20.42;9.35;;;16.80;99.90;;;;;;5073811;28;20024;-80
2023/05/27 05:24:39;;;;;;;20.90;9.10;;;16.80;99.90;;;;;;5073912;28;20070;-81
2023/05/27 05:27:07;;;;;;;20.65;9.60;;;16.90;99.90;;;;;;5071869;28;20040;-80
2023/05/27 05:29:32;;;;;;;16.55;8.05;;;16.90;99.90;;;;;;5074496;28;20020;-80
2023/05/27 05:31:58;;;;;;;19.80;8.90;;;17.00;99.90;;;;;;5073915;28;20065;-81
2023/05/27 05:34:24;;;;;;;22.27;10.20;;;17.00;99.90;;;;;;5072534;28;20029;-80
2023/05/27 05:36:50;;;;;;;19.65;7.80;;;17.00;99.90;;;;;;5072869;28;20032;-81
2023/05/27 05:39:16;;;;;;;16.15;8.02;;;17.00;99.90;;;;;;5072633;28;20029;-79
2023/05/27 05:41:42;;;;;;;15.32;8.43;;;17.10;99.90;;;;;;5074026;28;20036;-82
2023/05/27 05:44:08;;;;;;;18.13;8.35;;;17.10;99.90;;;;;;5073665;28;20025;-82
2023/05/27 05:46:34;;;;;;;21.08;8.65;;;17.20;99.90;;;;;;5073342;28;20028;-82
2023/05/27 05:49:00;;;;;;;15.88;8.63;;;17.20;99.90;;;;;;5072621;28;20028;-83
2023/05/27 05:51:26;;;;;;;18.38;8.30;;;17.20;99.90;;;;;;5073672;28;20025;-83
2023/05/27 05:53:52;;;;;;;17.02;8.23;;;17.30;99.90;;;;;;5072639;28;20090;-82
2023/05/27 05:56:17;;;;;;;17.25;8.82;;;17.30;99.90;;;;;;5071428;28;20123;-80
2023/05/27 05:58:43;;;;;;;20.38;9.18;;;17.30;99.90;;;;;;5073861;28;20031;-80
2023/05/27 06:01:09;;;;;;;18.52;8.77;;;17.40;99.90;;;;;;5072585;28;20119;-83
2023/05/27 06:03:36;;;;;;;20.52;10.02;;;17.40;99.90;;;;;;5073159;28;20067;-82
2023/05/27 06:06:02;;;;;;;21.10;9.50;;;17.40;99.90;;;;;;5072637;28;20024;-81
2023/05/27 06:08:28;;;;;;;19.05;8.95;;;17.50;99.90;;;;;;5072238;28;20111;-81
2023/05/27 06:10:54;;;;;;;22.70;10.30;;;17.50;99.90;;;;;;5072424;28;20036;-80
2023/05/27 06:13:20;;;;;;;17.33;10.15;;;17.60;99.90;;;;;;5074035;28;20131;-81
2023/05/27 06:15:46;;;;;;;18.58;9.38;;;;;;;;;;5072001;28;20041;-80
2023/05/27 06:18:11;;;;;;;16.20;8.55;;;17.80;99.90;;;;;;5072335;28;20057;-81
2023/05/27 06:20:38;;;;;;;15.45;8.55;;;;;;;;;;5073306;28;20100;-81
2023/05/27 06:23:03;;;;;;;21.52;8.27;;;18.00;99.90;;;;;;5072064;28;20032;-80
2023/05/27 06:25:29;;;;;;;16.25;9.00;;;17.90;99.90;;;;;;5073314;28;20174;-79
2023/05/27 06:27:55;;;;;;;16.83;8.63;;;18.00;99.90;;;;;;5073858;28;20032;-82
2023/05/27 06:30:21;;;;;;;12.10;8.25;;;18.00;99.90;;;;;;5073146;28;20036;-80
2023/05/27 06:32:46;;;;;;;16.70;9.48;;;18.00;99.90;;;;;;5071458;28;20028;-79
2023/05/27 06:35:12;;;;;;;16.58;8.50;;;17.90;99.90;;;;;;5072091;28;20170;-78
2023/05/27 06:37:38;;;;;;;13.90;8.77;;;17.90;99.90;;;;;;5072431;28;20032;-79
2023/05/27 06:40:04;;;;;;;16.27;8.25;;;17.90;99.90;;;;;;5071362;28;20032;-78
2023/05/27 06:42:30;;;;;;;11.60;8.70;;;18.10;99.90;;;;;;5072097;28;20079;-80
2023/05/27 06:44:56;;;;;;;13.70;8.05;;;;;;;;;;5071674;28;20477;-78
2023/05/27 06:47:22;;;;;;;13.60;7.97;;;18.30;99.90;;;;;;5071471;28;20056;-79
2023/05/27 06:49:47;;;;;;;13.23;7.93;;;18.50;99.90;;;;;;5072484;28;20055;-77
2023/05/27 06:52:13;;;;;;;12.65;8.60;;;18.60;99.90;;;;;;5072041;28;20040;-78
2023/05/27 06:54:39;;;;;;;13.27;8.40;;;18.60;99.90;;;;;;5073178;28;20048;-81
2023/05/27 06:57:05;;;;;;;16.63;8.45;;;18.70;99.90;;;;;;5073003;28;20039;-80
2023/05/27 06:59:31;;;;;;;12.40;8.48;;;18.60;99.90;;;;;;5076411;28;20031;-81
2023/05/27 07:01:57;;;;;;;14.80;9.45;;;18.60;99.90;;;;;;5075848;28;20064;-80
2023/05/27 07:04:22;;;;;;;17.50;9.70;;;18.60;99.90;;;;;;5076540;28;20032;-79
2023/05/27 07:06:49;;;;;;;13.05;9.80;;;;;;;;;;5075791;28;20028;-81
2023/05/27 07:09:15;;;;;;;19.67;9.98;;;18.90;99.90;;;;;;5075667;28;20032;-84
2023/05/27 07:11:41;;;;;;;30.95;23.73;;;18.90;99.90;;;;;;5076589;28;20059;-79
2023/05/27 07:14:09;;;;;;;61.25;44.35;;;19.10;99.90;;;;;;5076650;28;20104;-80
2023/05/27 07:16:35;;;;;;;62.25;34.22;;;19.00;99.90;;;;;;5076757;28;20033;-80
2023/05/27 07:19:01;;;;;;;24.38;12.68;;;19.00;99.90;;;;;;5076156;28;20020;-80
2023/05/27 07:21:26;;;;;;;18.08;11.15;;;18.90;99.90;;;;;;5075395;28;20094;-81
2023/05/27 07:23:52;;;;;;;18.52;10.35;;;18.90;99.90;;;;;;5076872;28;20099;-80
2023/05/27 07:26:18;;;;;;;18.73;10.70;;;18.90;99.90;;;;;;5075308;28;20044;-81
2023/05/27 07:28:45;;;;;;;13.20;9.55;;;18.90;99.90;;;;;;5076854;28;20455;-79
2023/05/27 07:31:11;;;;;;;14.23;10.63;;;18.90;99.90;;;;;;5076577;28;20103;-81
2023/05/27 07:33:36;;;;;;;12.43;9.60;;;19.10;99.90;;;;;;5075949;28;20060;-81
2023/05/27 07:36:02;;;;;;;19.38;9.88;;;19.30;99.90;;;;;;5076335;28;20033;-80
2023/05/27 07:38:28;;;;;;;14.43;10.80;;;19.30;99.90;;;;;;5075039;28;20097;-81
2023/05/27 07:40:54;;;;;;;13.23;10.13;;;19.40;99.90;;;;;;5074835;28;20028;-80
2023/05/27 07:43:20;;;;;;;17.83;10.18;;;19.30;99.90;;;;;;5075031;28;20036;-81
2023/05/27 07:45:45;;;;;;;13.15;9.95;;;19.20;99.90;;;;;;5075070;28;20059;-81
2023/05/27 07:48:11;;;;;;;18.13;10.35;;;19.20;99.90;;;;;;5074856;28;20082;-81
2023/05/27 07:50:37;;;;;;;15.27;11.52;;;19.40;99.90;;;;;;5075873;28;20111;-81
2023/05/27 07:53:03;;;;;;;15.75;10.40;;;19.40;99.90;;;;;;5075916;28;20029;-83
2023/05/27 07:55:29;;;;;;;13.40;10.60;;;19.50;99.90;;;;;;5075723;28;20039;-82
2023/05/27 07:57:55;;;;;;;16.95;10.60;;;19.50;99.90;;;;;;5074701;28;20103;-81
2023/05/27 08:00:21;;;;;;;14.80;10.68;;;19.40;99.90;;;;;;5075521;28;20024;-81
2023/05/27 08:02:47;;;;;;;14.07;10.13;;;19.50;99.90;;;;;;5074986;28;20028;-80
2023/05/27 08:05:12;;;;;;;12.48;10.50;;;19.70;99.90;;;;;;5073471;28;20031;-80
2023/05/27 08:07:38;;;;;;;14.98;10.55;;;19.90;99.90;;;;;;5074672;28;20383;-80
2023/05/27 08:10:05;;;;;;;16.67;10.95;;;20.10;99.90;;;;;;5074048;28;20032;-79
2023/05/27 08:12:31;;;;;;;18.50;10.52;;;20.10;99.90;;;;;;5074225;28;20048;-79
2023/05/27 08:14:56;;;;;;;17.25;11.52;;;20.10;99.90;;;;;;5074733;28;20048;-79
2023/05/27 08:17:22;;;;;;;16.10;10.52;;;20.20;99.90;;;;;;5075876;28;20031;-79
2023/05/27 08:19:48;;;;;;;15.15;10.95;;;20.10;99.90;;;;;;5074358;28;20025;-79
2023/05/27 08:22:14;;;;;;;17.27;11.73;;;;;;;;;;5073481;28;20055;-80
2023/05/27 08:24:40;;;;;;;18.95;12.20;;;;;;;;;;5073934;28;20028;-79
2023/05/27 08:27:16;;;;;;;16.80;12.07;;;20.10;99.90;;;;;;5074330;28;20036;-79
2023/05/27 08:29:42;;;;;;;21.33;11.40;;;20.10;99.90;;;;;;5068433;28;20021;-79
2023/05/27 08:32:08;;;;;;;17.30;10.88;;;20.10;99.90;;;;;;5072291;28;20017;-80
2023/05/27 08:34:34;;;;;;;17.20;11.32;;;20.10;99.90;;;;;;5073587;28;20043;-80
2023/05/27 08:37:01;;;;;;;20.50;10.85;;;;;;;;;;5073031;28;20111;-80
2023/05/27 08:39:27;;;;;;;16.10;11.40;;;20.60;99.90;;;;;;5074569;28;20474;-80
2023/05/27 08:41:53;;;;;;;15.50;10.73;;;20.80;99.90;;;;;;5072770;28;20378;-80
2023/05/27 08:44:22;;;;;;;15.32;12.00;;;20.50;99.90;;;;;;5072518;28;20101;-80
2023/05/27 08:46:50;;;;;;;14.23;11.57;;;;;;;;;;5073042;28;20082;-79
2023/05/27 08:49:16;;;;;;;14.52;11.32;;;20.40;99.90;;;;;;5074132;28;20020;-80
2023/05/27 08:51:43;;;;;;;15.43;11.20;;;20.40;99.90;;;;;;5073883;28;20060;-80
2023/05/27 08:54:09;;;;;;;16.27;11.38;;;20.70;99.90;;;;;;5073719;28;20025;-80
2023/05/27 08:56:36;;;;;;;13.60;10.00;;;20.80;99.90;;;;;;5070696;28;20497;-81
2023/05/27 08:59:02;;;;;;;18.77;11.27;;;20.70;99.90;;;;;;5072191;28;20052;-80
2023/05/27 09:01:30;;;;;;;16.15;10.20;;;20.70;99.90;;;;;;5072598;28;20052;-80
2023/05/27 09:03:56;;;;;;;13.93;10.50;;;20.70;99.90;;;;;;5071701;28;20024;-80
2023/05/27 09:06:22;;;;;;;20.13;11.07;;;20.70;99.90;;;;;;5074476;28;20047;-80
2023/05/27 09:08:48;;;;;;;13.45;11.30;;;20.70;99.90;;;;;;5073027;28;20016;-81
2023/05/27 09:11:22;;;;;;;18.55;10.73;;;20.80;99.90;;;;;;5072424;28;20387;-80
2023/05/27 09:13:49;;;;;;;14.40;11.15;;;;;;;;;;5073218;28;20516;-81
2023/05/27 09:16:19;;;;;;;14.25;11.00;;;20.80;99.90;;;;;;5071442;28;20376;-80
2023/05/27 09:18:46;;;;;;;17.48;11.07;;;;;;;;;;5053805;28;20033;-80
2023/05/27 09:21:12;;;;;;;15.82;11.43;;;20.90;99.90;;;;;;5069636;28;20032;-82
2023/05/27 09:23:39;;;;;;;16.42;12.02;;;;;;;;;;5072488;28;20383;-81
2023/05/27 09:26:12;;;;;;;21.65;11.88;;;;;;;;;;5072107;28;20475;-81
2023/05/27 09:28:39;;;;;;;18.25;11.15;;;;;;;;;;5073513;28;20016;-80
2023/05/27 09:31:06;;;;;;;14.50;11.13;;;;;;;;;;5072469;28;20351;-80
2023/05/27 09:33:34;;;;;;;14.77;11.38;;;;;;;;;;5071994;28;20025;-80
2023/05/27 09:36:01;;;;;;;15.68;10.80;;;;;;;;;;5073442;28;20056;-81
2023/05/27 09:38:30;;;;;;;14.43;11.35;;;;;;;;;;5073188;28;20104;-81
2023/05/27 09:40:58;;;;;;;15.68;10.70;;;;;;;;;;5071811;28;20382;-81
2023/05/27 09:43:28;;;;;;;16.88;10.57;;;;;;;;;;5073212;28;20486;-81
2023/05/27 09:46:01;;;;;;;14.35;10.52;;;;;;;;;;5071670;28;20025;-82
2023/05/27 09:48:30;;;;;;;16.65;11.55;;;;;;;;;;5072171;28;20021;-82
2023/05/27 09:50:57;;;;;;;18.95;11.07;;;;;;;;;;5073095;28;20013;-82
2023/05/27 09:53:24;;;;;;;18.60;11.02;;;;;;;;;;5071810;28;20107;-81
2023/05/27 09:55:51;;;;;;;19.15;12.45;;;;;;;;;;5071732;28;20043;-81
2023/05/27 09:58:18;;;;;;;14.68;10.57;;;;;;;;;;5072015;28;20020;-81
2023/05/27 10:00:46;;;;;;;13.68;10.88;;;;;;;;;;5071253;28;20035;-81
2023/05/27 10:03:13;;;;;;;15.32;11.80;;;;;;;;;;5072045;28;20047;-81
2023/05/27 10:05:41;;;;;;;14.80;10.82;;;;;;;;;;5073124;28;20024;-82
2023/05/27 10:08:07;;;;;;;12.95;11.10;;;;;;;;;;5070717;28;20466;-82
2023/05/27 10:10:33;;;;;;;19.40;12.85;;;;;;;;;;5071283;28;20074;-81
2023/05/27 10:13:00;;;;;;;18.95;12.57;;;;;;;;;;5072823;28;20032;-80
2023/05/27 10:15:31;;;;;;;21.80;11.98;;;;;;;;;;5069868;28;20129;-80
2023/05/27 10:18:03;;;;;;;14.90;12.55;;;;;;;;;;5071409;28;20502;-80
2023/05/27 10:20:29;;;;;;;;;;;;;;;;;;5073147;28;20028;-79
2023/05/27 10:22:56;;;;;;;15.45;12.10;;;;;;;;;;5071654;28;19908;-79
2023/05/27 10:25:23;;;;;;;16.65;13.60;;;;;;;;;;5072584;28;20427;-80
2023/05/27 10:27:49;;;;;;;17.42;14.20;;;;;;;;;;5070849;28;20020;-80
2023/05/27 10:30:16;;;;;;;14.90;11.68;;;;;;;;;;5072925;28;20103;-79
2023/05/27 10:32:49;;;;;;;19.85;15.00;;;;;;;;;;5075820;28;20024;-80
2023/05/27 10:35:16;;;;;;;18.02;14.25;;;;;;;;;;5074912;28;20035;-81
2023/05/27 10:37:43;;;;;;;17.10;12.18;;;;;;;;;;5075990;28;20017;-81
2023/05/27 10:40:10;;;;;;;17.80;13.45;;;;;;;;;;5074969;28;20029;-81
2023/05/27 10:42:36;;;;;;;19.23;14.75;;;;;;;;;;5075885;28;20027;-82
2023/05/27 10:45:05;;;;;;;16.30;12.40;;;;;;;;;;5075229;28;20042;-81
2023/05/27 10:47:31;;;;;;;17.40;13.35;;;;;;;;;;5075154;28;20082;-83
2023/05/27 10:49:57;;;;;;;15.82;11.65;;;;;;;;;;5074849;28;20470;-81
2023/05/27 10:52:26;;;;;;;17.20;12.20;;;;;;;;;;5076330;28;20441;-81
2023/05/27 10:54:54;;;;;;;15.65;11.95;;;;;;;;;;5075162;28;20036;-81
2023/05/27 10:57:22;;;;;;;19.83;12.30;;;;;;;;;;5076182;28;20020;-84
2023/05/27 10:59:58;;;;;;;14.82;12.32;;;;;;;;;;5076310;28;20012;-83
2023/05/27 11:02:24;;;;;;;15.60;12.38;;;;;;;;;;5074984;28;20528;-83
2023/05/27 11:04:51;;;;;;;15.80;12.55;;;;;;;;;;5075073;28;20039;-82
2023/05/27 11:07:20;;;;;;;15.57;13.10;;;;;;;;;;5076182;28;20028;-82
2023/05/27 11:09:51;;;;;;;17.83;13.98;;;;;;;;;;5074504;28;20043;-82
2023/05/27 11:12:18;;;;;;;14.27;12.05;;;;;;;;;;5076232;28;20024;-83
2023/05/27 11:14:45;;;;;;;17.40;12.00;;;;;;;;;;5074346;28;20055;-81
2023/05/27 11:17:12;;;;;;;14.15;11.23;;;;;;;;;;5075433;28;20016;-83
2023/05/27 11:19:41;;;;;;;13.80;11.35;;;;;;;;;;5076016;28;20055;-82
2023/05/27 11:22:11;;;;;;;17.10;11.63;;;;;;;;;;5075946;28;20024;-83
2023/05/27 11:24:37;;;;;;;16.75;12.52;;;;;;;;;;5075427;28;20020;-83
2023/05/27 11:27:13;;;;;;;14.80;11.65;;;;;;;;;;5074478;28;20024;-83
2023/05/27 11:29:40;;;;;;;15.45;11.98;;;;;;;;;;5075750;28;20103;-82
2023/05/27 11:32:07;;;;;;;16.35;11.00;;;;;;;;;;5072548;28;20028;-82
2023/05/27 11:34:36;;;;;;;18.35;13.05;;;;;;;;;;5075193;28;20052;-88
2023/05/27 11:37:06;;;;;;;16.00;11.85;;;;;;;;;;5074078;28;20032;-82
2023/05/27 11:39:32;;;;;;;13.52;12.13;;;;;;;;;;5075007;28;20067;-83
2023/05/27 11:41:59;;;;;;;16.42;11.48;;;;;;;;;;5075038;28;20024;-83
2023/05/27 11:44:25;;;;;;;14.60;11.88;;;;;;;;;;5073852;28;20024;-81
2023/05/27 11:46:53;;;;;;;14.93;11.60;;;;;;;;;;5074590;28;20020;-84
2023/05/27 11:49:20;;;;;;;14.15;11.75;;;;;;;;;;5073930;28;20029;-82
2023/05/27 11:51:47;;;;;;;15.00;12.15;;;;;;;;;;5073054;28;20016;-82
2023/05/27 11:54:31;;;;;;;15.98;11.10;;;;;;;;;;5075306;28;20021;-83
2023/05/27 11:57:02;;;;;;;23.52;12.75;;;;;;;;;;5072529;28;20060;-83
2023/05/27 11:59:28;;;;;;;13.10;11.50;;;;;;;;;;5073140;28;20025;-84
2023/05/27 12:01:54;;;;;;;14.60;11.57;;;;;;;;;;5073253;28;20297;-84
2023/05/27 12:04:20;;;;;;;12.68;11.38;;;;;;;;;;5073389;28;20115;-83
2023/05/27 12:06:47;;;;;;;17.95;11.50;;;;;;;;;;5072944;28;20021;-81
2023/05/27 12:09:14;;;;;;;17.30;10.50;;;;;;;;;;5073475;28;20111;-82
2023/05/27 12:11:41;;;;;;;14.38;9.95;;;;;;;;;;5072776;28;20029;-81
2023/05/27 12:14:07;;;;;;;14.60;11.60;;;;;;;;;;5073169;28;20044;-84
2023/05/27 12:16:33;;;;;;;14.65;11.98;;;;;;;;;;5072729;28;20056;-83
2023/05/27 12:19:00;;;;;;;13.52;11.68;;;;;;;;;;5073111;28;20032;-82
2023/05/27 12:21:26;;;;;;;18.38;10.65;;;;;;;;;;5073921;28;20051;-82
2023/05/27 12:23:52;;;;;;;14.80;11.25;;;;;;;;;;5074102;28;20108;-84
2023/05/27 12:26:19;;;;;;;13.80;12.27;;;;;;;;;;5072822;28;20029;-83
2023/05/27 12:28:45;;;;;;;14.80;10.20;;;;;;;;;;5072475;28;20352;-82
2023/05/27 12:31:11;;;;;;;12.52;10.75;;;;;;;;;;5072856;28;20020;-83
2023/05/27 12:33:38;;;;;;;15.85;11.57;;;;;;;;;;5074559;28;20024;-81
2023/05/27 12:36:07;;;;;;;19.40;12.55;;;;;;;;;;5074059;28;20369;-82
2023/05/27 12:38:34;;;;;;;20.60;10.52;;;;;;;;;;5075539;28;20502;-82
2023/05/27 12:41:00;;;;;;;13.63;12.23;;;;;;;;;;5073440;28;20111;-83
2023/05/27 12:43:27;;;;;;;14.95;12.07;;;;;;;;;;5074545;28;20028;-82
2023/05/27 12:45:53;;;;;;;13.15;11.00;;;;;;;;;;5073382;28;20028;-82
2023/05/27 12:48:20;;;;;;;19.75;12.63;;;;;;;;;;5074439;28;20060;-83
2023/05/27 12:50:46;;;;;;;12.57;11.23;;;;;;;;;;5073200;28;20107;-83
2023/05/27 12:53:12;;;;;;;11.15;9.88;;;;;;;;;;5072926;28;20029;-82
2023/05/27 12:55:39;;;;;;;13.38;11.45;;;;;;;;;;5072172;28;20651;-82
2023/05/27 12:58:05;;;;;;;15.57;11.85;;;;;;;;;;5073420;28;20056;-82
2023/05/27 13:00:34;;;;;;;10.60;8.13;;;;;;;;;;5073310;28;20074;-81
2023/05/27 13:03:00;;;;;;;10.65;9.48;;;;;;;;;;5073188;28;20035;-83